sensor_id;sensor_type;location;lat;lon;timestamp;pressure;altitude;pressure_sealevel;temperature;humidity
40850;BME280;26571;41.610;25.380;2023-12-04T00:00:41;98628.78;;;9.80;100.00
40850;BME280;26571;41.610;25.380;2023-12-04T00:03:06;98646.47;;;9.70;100.00
40850;BME280;26571;41.610;25.380;2023-12-04T00:05:32;98686.94;;;10.11;100.00
40850;BME280;26571;41.610;25.380;2023-12-04T00:07:57;98664.03;;;10.03;100.00
40850;BME280;26571;41.610;25.380;2023-12-04T00:10:23;98626.56;;;9.67;100.00
40850;BME280;26571;41.610;25.380;2023-12-04T00:12:49;98641.56;;;9.05;100.00
40850;BME280;26571;41.610;25.380;2023-12-04T00:15:16;98664.50;;;9.03;100.00
40850;BME280;26571;41.610;25.380;2023-12-04T00:17:42;98661.84;;;9.39;100.00
40850;BME280;26571;41.610;25.380;2023-12-04T00:20:08;98663.97;;;9.61;100.00
40850;BME280;26571;41.610;25.380;2023-12-04T00:22:35;98675.13;;;9.81;100.00
40850;BME280;26571;41.610;25.380;2023-12-04T00:25:02;98619.69;;;9.48;100.00
40850;BME280;26571;41.610;25.380;2023-12-04T00:27:28;98659.13;;;9.74;100.00
40850;BME280;26571;41.610;25.380;2023-12-04T00:29:54;98535.84;;;9.03;100.00
40850;BME280;26571;41.610;25.380;2023-12-04T00:32:19;98653.75;;;9.84;100.00
40850;BME280;26571;41.610;25.380;2023-12-04T00:34:45;98666.94;;;9.92;100.00
40850;BME280;26571;41.610;25.380;2023-12-04T00:37:10;98670.00;;;10.14;100.00
40850;BME280;26571;41.610;25.380;2023-12-04T00:39:36;98687.03;;;10.27;100.00
40850;BME280;26571;41.610;25.380;2023-12-04T00:42:02;98691.53;;;10.35;100.00
40850;BME280;26571;41.610;25.380;2023-12-04T00:44:28;98685.09;;;10.38;100.00
40850;BME280;26571;41.610;25.380;2023-12-04T00:46:53;98703.59;;;10.20;100.00
40850;BME280;26571;41.610;25.380;2023-12-04T00:49:19;98713.41;;;10.44;100.00
40850;BME280;26571;41.610;25.380;2023-12-04T00:51:44;98720.34;;;10.45;100.00
40850;BME280;26571;41.610;25.380;2023-12-04T00:54:10;98734.47;;;10.44;100.00
40850;BME280;26571;41.610;25.380;2023-12-04T00:56:39;98741.13;;;10.56;100.00
40850;BME280;26571;41.610;25.380;2023-12-04T00:59:07;98749.78;;;10.40;100.00
40850;BME280;26571;41.610;25.380;2023-12-04T01:01:36;98741.53;;;10.43;100.00
40850;BME280;26571;41.610;25.380;2023-12-04T01:04:02;98720.78;;;10.32;100.00
40850;BME280;26571;41.610;25.380;2023-12-04T01:06:27;98719.97;;;10.05;100.00
40850;BME280;26571;41.610;25.380;2023-12-04T01:08:54;98736.72;;;10.30;100.00
40850;BME280;26571;41.610;25.380;2023-12-04T01:11:20;98730.97;;;10.09;100.00
40850;BME280;26571;41.610;25.380;2023-12-04T01:13:46;98685.72;;;9.97;100.00
40850;BME280;26571;41.610;25.380;2023-12-04T01:16:12;98711.41;;;10.29;100.00
40850;BME280;26571;41.610;25.380;2023-12-04T01:18:38;98706.50;;;10.34;100.00
40850;BME280;26571;41.610;25.380;2023-12-04T01:21:03;98646.44;;;10.04;100.00
40850;BME280;26571;41.610;25.380;2023-12-04T01:23:29;98706.69;;;10.41;100.00
40850;BME280;26571;41.610;25.380;2023-12-04T01:25:55;98702.59;;;10.21;100.00
40850;BME280;26571;41.610;25.380;2023-12-04T01:28:20;98709.91;;;10.27;100.00
40850;BME280;26571;41.610;25.380;2023-12-04T01:30:48;98683.75;;;10.25;100.00
40850;BME280;26571;41.610;25.380;2023-12-04T01:33:14;98689.28;;;10.22;100.00
40850;BME280;26571;41.610;25.380;2023-12-04T01:35:40;98725.91;;;10.42;100.00
40850;BME280;26571;41.610;25.380;2023-12-04T01:38:05;98718.31;;;10.39;100.00
40850;BME280;26571;41.610;25.380;2023-12-04T01:40:31;98727.91;;;10.40;100.00
40850;BME280;26571;41.610;25.380;2023-12-04T01:42:56;98739.66;;;10.27;100.00
40850;BME280;26571;41.610;25.380;2023-12-04T01:45:22;98750.72;;;10.31;100.00
40850;BME280;26571;41.610;25.380;2023-12-04T01:47:48;98761.63;;;10.18;100.00
40850;BME280;26571;41.610;25.380;2023-12-04T01:50:14;98780.38;;;10.23;100.00
40850;BME280;26571;41.610;25.380;2023-12-04T01:52:40;98737.84;;;9.76;100.00
40850;BME280;26571;41.610;25.380;2023-12-04T01:55:08;98718.63;;;9.75;100.00
40850;BME280;26571;41.610;25.380;2023-12-04T01:57:34;98740.31;;;10.03;100.00
40850;BME280;26571;41.610;25.380;2023-12-04T02:00:00;98762.97;;;10.22;100.00
40850;BME280;26571;41.610;25.380;2023-12-04T02:02:28;98779.47;;;10.24;100.00
40850;BME280;26571;41.610;25.380;2023-12-04T02:04:57;98786.41;;;10.33;100.00
40850;BME280;26571;41.610;25.380;2023-12-04T02:07:25;98768.16;;;10.14;100.00
40850;BME280;26571;41.610;25.380;2023-12-04T02:09:50;98746.28;;;10.14;100.00
40850;BME280;26571;41.610;25.380;2023-12-04T02:12:16;98730.16;;;10.08;100.00
40850;BME280;26571;41.610;25.380;2023-12-04T02:14:42;98760.97;;;10.16;100.00
40850;BME280;26571;41.610;25.380;2023-12-04T02:17:08;98738.50;;;10.04;100.00
40850;BME280;26571;41.610;25.380;2023-12-04T02:19:35;98754.72;;;10.17;100.00
40850;BME280;26571;41.610;25.380;2023-12-04T02:22:01;98742.66;;;10.06;100.00
40850;BME280;26571;41.610;25.380;2023-12-04T02:24:27;98733.59;;;10.09;100.00
40850;BME280;26571;41.610;25.380;2023-12-04T02:26:56;98765.22;;;10.17;100.00
40850;BME280;26571;41.610;25.380;2023-12-04T02:29:31;98623.19;;;9.05;100.00
40850;BME280;26571;41.610;25.380;2023-12-04T02:32:00;98776.88;;;9.89;100.00
40850;BME280;26571;41.610;25.380;2023-12-04T02:34:27;98745.66;;;9.86;100.00
40850;BME280;26571;41.610;25.380;2023-12-04T02:36:54;98764.81;;;10.04;100.00
40850;BME280;26571;41.610;25.380;2023-12-04T02:39:20;98781.09;;;10.25;100.00
40850;BME280;26571;41.610;25.380;2023-12-04T02:41:45;98779.31;;;10.26;100.00
40850;BME280;26571;41.610;25.380;2023-12-04T02:44:11;98764.22;;;10.10;100.00
40850;BME280;26571;41.610;25.380;2023-12-04T02:46:36;98783.59;;;10.09;100.00
40850;BME280;26571;41.610;25.380;2023-12-04T02:49:02;98747.91;;;9.80;100.00
40850;BME280;26571;41.610;25.380;2023-12-04T02:51:27;98783.84;;;9.98;100.00
40850;BME280;26571;41.610;25.380;2023-12-04T02:53:53;98773.91;;;10.09;100.00
40850;BME280;26571;41.610;25.380;2023-12-04T02:56:18;98774.22;;;10.06;100.00
40850;BME280;26571;41.610;25.380;2023-12-04T02:58:44;98774.00;;;10.00;100.00
40850;BME280;26571;41.610;25.380;2023-12-04T03:01:09;98748.75;;;9.63;100.00
40850;BME280;26571;41.610;25.380;2023-12-04T03:03:34;98739.75;;;9.48;100.00
40850;BME280;26571;41.610;25.380;2023-12-04T03:06:00;98777.00;;;9.43;100.00
40850;BME280;26571;41.610;25.380;2023-12-04T03:08:25;98797.44;;;9.04;100.00
40850;BME280;26571;41.610;25.380;2023-12-04T03:10:51;98789.59;;;8.76;100.00
40850;BME280;26571;41.610;25.380;2023-12-04T03:13:16;98783.53;;;8.39;100.00
40850;BME280;26571;41.610;25.380;2023-12-04T03:15:42;98788.38;;;8.24;100.00
40850;BME280;26571;41.610;25.380;2023-12-04T03:18:07;98797.78;;;8.26;100.00
40850;BME280;26571;41.610;25.380;2023-12-04T03:20:33;98805.31;;;7.73;100.00
40850;BME280;26571;41.610;25.380;2023-12-04T03:22:58;98804.50;;;7.53;100.00
40850;BME280;26571;41.610;25.380;2023-12-04T03:25:24;98810.84;;;7.31;100.00
40850;BME280;26571;41.610;25.380;2023-12-04T03:27:49;98797.84;;;7.30;100.00
40850;BME280;26571;41.610;25.380;2023-12-04T03:30:15;98814.38;;;7.11;100.00
40850;BME280;26571;41.610;25.380;2023-12-04T03:32:41;98832.84;;;7.19;100.00
40850;BME280;26571;41.610;25.380;2023-12-04T03:35:07;98818.25;;;7.36;100.00
40850;BME280;26571;41.610;25.380;2023-12-04T03:37:32;98795.13;;;7.21;100.00
40850;BME280;26571;41.610;25.380;2023-12-04T03:39:58;98806.81;;;7.17;100.00
40850;BME280;26571;41.610;25.380;2023-12-04T03:42:23;98809.94;;;6.92;100.00
40850;BME280;26571;41.610;25.380;2023-12-04T03:44:49;98808.09;;;6.73;100.00
40850;BME280;26571;41.610;25.380;2023-12-04T03:47:14;98811.94;;;6.38;100.00
40850;BME280;26571;41.610;25.380;2023-12-04T03:49:40;98822.44;;;6.48;100.00
40850;BME280;26571;41.610;25.380;2023-12-04T03:52:05;98806.81;;;6.67;100.00
40850;BME280;26571;41.610;25.380;2023-12-04T03:54:31;98816.31;;;7.09;100.00
40850;BME280;26571;41.610;25.380;2023-12-04T03:56:56;98834.38;;;7.21;100.00
40850;BME280;26571;41.610;25.380;2023-12-04T03:59:22;98840.03;;;7.17;100.00
40850;BME280;26571;41.610;25.380;2023-12-04T04:01:47;98806.06;;;6.96;100.00
40850;BME280;26571;41.610;25.380;2023-12-04T04:04:13;98849.81;;;7.24;100.00
40850;BME280;26571;41.610;25.380;2023-12-04T04:06:38;98862.66;;;7.37;100.00
40850;BME280;26571;41.610;25.380;2023-12-04T04:09:04;98882.91;;;7.35;100.00
40850;BME280;26571;41.610;25.380;2023-12-04T04:11:30;98819.44;;;6.93;100.00
40850;BME280;26571;41.610;25.380;2023-12-04T04:13:55;98910.38;;;7.50;100.00
40850;BME280;26571;41.610;25.380;2023-12-04T04:16:21;98895.41;;;7.12;100.00
40850;BME280;26571;41.610;25.380;2023-12-04T04:18:46;98882.19;;;7.14;100.00
40850;BME280;26571;41.610;25.380;2023-12-04T04:21:12;98877.63;;;7.06;100.00
40850;BME280;26571;41.610;25.380;2023-12-04T04:23:37;98870.00;;;6.93;100.00
40850;BME280;26571;41.610;25.380;2023-12-04T04:26:03;98843.69;;;6.64;100.00
40850;BME280;26571;41.610;25.380;2023-12-04T04:28:28;98899.25;;;7.08;100.00
40850;BME280;26571;41.610;25.380;2023-12-04T04:30:54;98738.06;;;6.15;100.00
40850;BME280;26571;41.610;25.380;2023-12-04T04:33:19;98892.28;;;6.88;100.00
40850;BME280;26571;41.610;25.380;2023-12-04T04:35:45;98871.25;;;6.68;100.00
40850;BME280;26571;41.610;25.380;2023-12-04T04:38:10;98891.19;;;6.90;100.00
40850;BME280;26571;41.610;25.380;2023-12-04T04:40:36;98894.84;;;6.78;100.00
40850;BME280;26571;41.610;25.380;2023-12-04T04:43:01;98895.16;;;6.54;100.00
40850;BME280;26571;41.610;25.380;2023-12-04T04:45:27;98889.78;;;6.35;100.00
40850;BME280;26571;41.610;25.380;2023-12-04T04:47:52;98899.88;;;6.18;100.00
40850;BME280;26571;41.610;25.380;2023-12-04T04:50:18;98912.22;;;6.16;100.00
40850;BME280;26571;41.610;25.380;2023-12-04T04:52:43;98900.84;;;6.17;100.00
40850;BME280;26571;41.610;25.380;2023-12-04T04:55:09;98912.13;;;6.39;100.00
40850;BME280;26571;41.610;25.380;2023-12-04T04:57:34;98888.72;;;6.37;100.00
40850;BME280;26571;41.610;25.380;2023-12-04T05:00:00;98903.63;;;6.67;100.00
40850;BME280;26571;41.610;25.380;2023-12-04T05:02:25;98907.00;;;6.58;100.00
40850;BME280;26571;41.610;25.380;2023-12-04T05:04:51;98918.94;;;6.51;100.00
40850;BME280;26571;41.610;25.380;2023-12-04T05:07:16;98916.59;;;6.48;100.00
40850;BME280;26571;41.610;25.380;2023-12-04T05:09:42;98916.22;;;6.53;100.00
40850;BME280;26571;41.610;25.380;2023-12-04T05:12:07;98899.38;;;6.76;100.00
40850;BME280;26571;41.610;25.380;2023-12-04T05:14:33;98900.91;;;6.79;100.00
40850;BME280;26571;41.610;25.380;2023-12-04T05:16:58;98917.38;;;7.00;100.00
40850;BME280;26571;41.610;25.380;2023-12-04T05:19:24;98927.22;;;7.08;100.00
40850;BME280;26571;41.610;25.380;2023-12-04T05:21:50;98932.06;;;7.12;100.00
40850;BME280;26571;41.610;25.380;2023-12-04T05:24:15;98924.84;;;6.74;100.00
40850;BME280;26571;41.610;25.380;2023-12-04T05:26:41;98930.75;;;6.66;100.00
40850;BME280;26571;41.610;25.380;2023-12-04T05:29:06;98911.59;;;6.45;100.00
40850;BME280;26571;41.610;25.380;2023-12-04T05:31:31;98944.72;;;6.35;100.00
40850;BME280;26571;41.610;25.380;2023-12-04T05:33:57;98942.44;;;6.09;100.00
40850;BME280;26571;41.610;25.380;2023-12-04T05:36:23;98976.25;;;5.79;100.00
40850;BME280;26571;41.610;25.380;2023-12-04T05:38:48;98901.28;;;5.58;100.00
40850;BME280;26571;41.610;25.380;2023-12-04T05:41:13;98952.97;;;5.87;100.00
40850;BME280;26571;41.610;25.380;2023-12-04T05:43:39;98852.94;;;5.21;100.00
40850;BME280;26571;41.610;25.380;2023-12-04T05:46:05;98924.41;;;5.63;100.00
40850;BME280;26571;41.610;25.380;2023-12-04T05:48:30;98941.97;;;5.61;100.00
40850;BME280;26571;41.610;25.380;2023-12-04T05:50:56;98964.19;;;5.55;100.00
40850;BME280;26571;41.610;25.380;2023-12-04T05:53:21;98966.34;;;5.50;100.00
40850;BME280;26571;41.610;25.380;2023-12-04T05:55:46;98941.31;;;5.25;100.00
40850;BME280;26571;41.610;25.380;2023-12-04T05:58:12;98973.09;;;5.41;100.00
40850;BME280;26571;41.610;25.380;2023-12-04T06:00:37;98957.44;;;5.41;100.00
40850;BME280;26571;41.610;25.380;2023-12-04T06:03:03;98968.25;;;5.48;100.00
40850;BME280;26571;41.610;25.380;2023-12-04T06:05:28;98960.78;;;5.32;100.00
40850;BME280;26571;41.610;25.380;2023-12-04T06:07:54;98973.25;;;5.29;100.00
40850;BME280;26571;41.610;25.380;2023-12-04T06:10:19;98977.06;;;5.13;100.00
40850;BME280;26571;41.610;25.380;2023-12-04T06:12:45;98970.03;;;5.36;100.00
40850;BME280;26571;41.610;25.380;2023-12-04T06:15:10;98980.09;;;5.41;100.00
40850;BME280;26571;41.610;25.380;2023-12-04T06:17:36;98986.75;;;5.56;100.00
40850;BME280;26571;41.610;25.380;2023-12-04T06:20:01;98976.41;;;5.55;100.00
40850;BME280;26571;41.610;25.380;2023-12-04T06:22:27;99008.78;;;5.86;100.00
40850;BME280;26571;41.610;25.380;2023-12-04T06:24:53;99015.94;;;5.73;100.00
40850;BME280;26571;41.610;25.380;2023-12-04T06:27:19;98988.91;;;5.17;100.00
40850;BME280;26571;41.610;25.380;2023-12-04T06:29:46;99012.63;;;5.03;100.00
40850;BME280;26571;41.610;25.380;2023-12-04T06:32:12;99015.66;;;4.86;100.00
40850;BME280;26571;41.610;25.380;2023-12-04T06:34:38;99036.56;;;4.51;100.00
40850;BME280;26571;41.610;25.380;2023-12-04T06:37:11;99020.38;;;4.58;100.00
40850;BME280;26571;41.610;25.380;2023-12-04T06:39:38;99015.69;;;4.51;100.00
40850;BME280;26571;41.610;25.380;2023-12-04T06:42:08;98994.66;;;4.30;100.00
40850;BME280;26571;41.610;25.380;2023-12-04T06:44:34;98883.34;;;3.73;100.00
40850;BME280;26571;41.610;25.380;2023-12-04T06:47:00;99020.38;;;4.58;100.00
40850;BME280;26571;41.610;25.380;2023-12-04T06:49:30;99025.19;;;4.52;100.00
40850;BME280;26571;41.610;25.380;2023-12-04T06:51:56;99033.72;;;4.43;100.00
40850;BME280;26571;41.610;25.380;2023-12-04T06:54:21;99032.91;;;4.53;100.00
40850;BME280;26571;41.610;25.380;2023-12-04T06:56:47;99044.25;;;4.52;100.00
40850;BME280;26571;41.610;25.380;2023-12-04T06:59:12;99034.72;;;4.64;100.00
40850;BME280;26571;41.610;25.380;2023-12-04T07:01:38;99037.44;;;4.62;100.00
40850;BME280;26571;41.610;25.380;2023-12-04T07:04:03;99038.97;;;4.65;100.00
40850;BME280;26571;41.610;25.380;2023-12-04T07:06:35;99030.88;;;4.57;100.00
40850;BME280;26571;41.610;25.380;2023-12-04T07:09:01;99022.69;;;4.50;100.00
40850;BME280;26571;41.610;25.380;2023-12-04T07:11:27;99040.00;;;4.51;100.00
40850;BME280;26571;41.610;25.380;2023-12-04T07:13:52;99036.03;;;4.10;100.00
40850;BME280;26571;41.610;25.380;2023-12-04T07:16:17;99052.03;;;4.17;100.00
40850;BME280;26571;41.610;25.380;2023-12-04T07:18:43;99050.53;;;4.02;100.00
40850;BME280;26571;41.610;25.380;2023-12-04T07:21:09;99044.56;;;4.12;100.00
40850;BME280;26571;41.610;25.380;2023-12-04T07:23:35;99033.13;;;4.02;100.00
40850;BME280;26571;41.610;25.380;2023-12-04T07:26:00;99060.31;;;4.35;100.00
40850;BME280;26571;41.610;25.380;2023-12-04T07:28:26;99060.25;;;4.48;100.00
40850;BME280;26571;41.610;25.380;2023-12-04T07:30:52;99037.81;;;4.34;100.00
40850;BME280;26571;41.610;25.380;2023-12-04T07:33:17;99070.44;;;4.51;100.00
40850;BME280;26571;41.610;25.380;2023-12-04T07:35:43;99064.09;;;4.31;100.00
40850;BME280;26571;41.610;25.380;2023-12-04T07:38:08;99078.28;;;4.27;100.00
40850;BME280;26571;41.610;25.380;2023-12-04T07:40:34;99086.00;;;4.28;100.00
40850;BME280;26571;41.610;25.380;2023-12-04T07:43:00;99089.34;;;4.18;100.00
40850;BME280;26571;41.610;25.380;2023-12-04T07:45:25;99082.63;;;4.02;100.00
40850;BME280;26571;41.610;25.380;2023-12-04T07:47:52;99094.94;;;4.00;100.00
40850;BME280;26571;41.610;25.380;2023-12-04T07:50:17;99088.84;;;3.88;100.00
40850;BME280;26571;41.610;25.380;2023-12-04T07:52:43;99085.50;;;3.86;100.00
40850;BME280;26571;41.610;25.380;2023-12-04T07:55:08;99097.66;;;3.99;100.00
40850;BME280;26571;41.610;25.380;2023-12-04T07:57:34;99071.56;;;3.62;100.00
40850;BME280;26571;41.610;25.380;2023-12-04T07:59:59;99081.97;;;3.75;100.00
40850;BME280;26571;41.610;25.380;2023-12-04T08:02:25;99095.56;;;4.04;100.00
40850;BME280;26571;41.610;25.380;2023-12-04T08:04:50;99106.56;;;4.07;100.00
40850;BME280;26571;41.610;25.380;2023-12-04T08:07:16;99104.72;;;4.09;100.00
40850;BME280;26571;41.610;25.380;2023-12-04T08:09:41;99108.28;;;4.08;100.00
40850;BME280;26571;41.610;25.380;2023-12-04T08:12:07;99051.03;;;4.07;100.00
40850;BME280;26571;41.610;25.380;2023-12-04T08:14:32;98973.34;;;3.40;100.00
40850;BME280;26571;41.610;25.380;2023-12-04T08:16:58;99048.47;;;3.70;100.00
40850;BME280;26571;41.610;25.380;2023-12-04T08:19:24;99098.38;;;4.01;100.00
40850;BME280;26571;41.610;25.380;2023-12-04T08:21:50;99101.66;;;4.15;100.00
40850;BME280;26571;41.610;25.380;2023-12-04T08:24:15;99108.69;;;4.39;100.00
40850;BME280;26571;41.610;25.380;2023-12-04T08:26:46;99109.19;;;4.44;100.00
40850;BME280;26571;41.610;25.380;2023-12-04T08:29:12;99095.34;;;4.31;100.00
40850;BME280;26571;41.610;25.380;2023-12-04T08:31:37;99079.38;;;4.11;100.00
40850;BME280;26571;41.610;25.380;2023-12-04T08:34:03;99109.97;;;4.33;100.00
40850;BME280;26571;41.610;25.380;2023-12-04T08:36:28;99116.00;;;4.58;100.00
40850;BME280;26571;41.610;25.380;2023-12-04T08:38:54;99117.75;;;4.57;100.00
40850;BME280;26571;41.610;25.380;2023-12-04T08:41:19;99103.47;;;4.39;100.00
40850;BME280;26571;41.610;25.380;2023-12-04T08:43:45;99068.28;;;4.21;100.00
40850;BME280;26571;41.610;25.380;2023-12-04T08:46:14;99104.34;;;4.51;100.00
40850;BME280;26571;41.610;25.380;2023-12-04T08:48:41;99101.69;;;4.63;100.00
40850;BME280;26571;41.610;25.380;2023-12-04T08:51:07;99107.84;;;4.62;100.00
40850;BME280;26571;41.610;25.380;2023-12-04T08:53:34;99103.06;;;4.56;100.00
40850;BME280;26571;41.610;25.380;2023-12-04T08:55:59;99104.00;;;4.55;100.00
40850;BME280;26571;41.610;25.380;2023-12-04T08:58:25;99082.94;;;4.58;100.00
40850;BME280;26571;41.610;25.380;2023-12-04T09:00:50;99090.47;;;4.50;100.00
40850;BME280;26571;41.610;25.380;2023-12-04T09:03:16;99096.63;;;4.49;100.00
40850;BME280;26571;41.610;25.380;2023-12-04T09:05:42;99088.00;;;4.49;100.00
40850;BME280;26571;41.610;25.380;2023-12-04T09:08:07;99100.53;;;4.68;100.00
40850;BME280;26571;41.610;25.380;2023-12-04T09:10:33;99058.75;;;4.56;100.00
40850;BME280;26571;41.610;25.380;2023-12-04T09:12:58;99062.59;;;4.39;100.00
40850;BME280;26571;41.610;25.380;2023-12-04T09:15:24;99092.41;;;4.59;100.00
40850;BME280;26571;41.610;25.380;2023-12-04T09:17:49;99081.47;;;4.78;100.00
40850;BME280;26571;41.610;25.380;2023-12-04T09:20:15;99072.84;;;4.89;100.00
40850;BME280;26571;41.610;25.380;2023-12-04T09:22:41;99091.75;;;5.15;100.00
40850;BME280;26571;41.610;25.380;2023-12-04T09:25:06;99081.94;;;5.30;100.00
40850;BME280;26571;41.610;25.380;2023-12-04T09:27:33;99091.16;;;5.11;100.00
40850;BME280;26571;41.610;25.380;2023-12-04T09:29:59;99085.41;;;4.95;100.00
40850;BME280;26571;41.610;25.380;2023-12-04T09:32:24;99090.03;;;4.91;100.00
40850;BME280;26571;41.610;25.380;2023-12-04T09:35:52;99085.75;;;4.90;100.00
40850;BME280;26571;41.610;25.380;2023-12-04T09:38:01;99057.41;;;4.86;100.00
40850;BME280;26571;41.610;25.380;2023-12-04T09:40:27;99072.41;;;5.06;100.00
40850;BME280;26571;41.610;25.380;2023-12-04T09:42:52;99062.47;;;5.23;100.00
40850;BME280;26571;41.610;25.380;2023-12-04T09:45:19;99074.47;;;5.59;100.00
40850;BME280;26571;41.610;25.380;2023-12-04T09:47:50;99075.66;;;5.66;100.00
40850;BME280;26571;41.610;25.380;2023-12-04T09:50:19;99085.03;;;5.46;100.00
40850;BME280;26571;41.610;25.380;2023-12-04T09:52:49;99054.88;;;5.31;100.00
40850;BME280;26571;41.610;25.380;2023-12-04T09:55:18;99074.34;;;5.38;100.00
40850;BME280;26571;41.610;25.380;2023-12-04T09:58:03;99067.69;;;5.45;100.00
40850;BME280;26571;41.610;25.380;2023-12-04T10:00:31;99071.75;;;5.38;100.00
40850;BME280;26571;41.610;25.380;2023-12-04T10:02:57;99035.41;;;5.24;100.00
40850;BME280;26571;41.610;25.380;2023-12-04T10:05:27;99083.59;;;5.42;100.00
40850;BME280;26571;41.610;25.380;2023-12-04T10:07:53;99074.00;;;5.42;100.00
40850;BME280;26571;41.610;25.380;2023-12-04T10:10:18;99077.09;;;5.48;100.00
40850;BME280;26571;41.610;25.380;2023-12-04T10:12:44;99077.66;;;5.51;100.00
40850;BME280;26571;41.610;25.380;2023-12-04T10:15:11;99088.13;;;5.74;100.00
40850;BME280;26571;41.610;25.380;2023-12-04T10:17:41;99088.38;;;5.93;100.00
40850;BME280;26571;41.610;25.380;2023-12-04T10:20:10;99073.28;;;5.74;100.00
40850;BME280;26571;41.610;25.380;2023-12-04T10:22:42;99072.94;;;5.67;100.00
40850;BME280;26571;41.610;25.380;2023-12-04T10:25:17;99086.81;;;5.57;100.00
40850;BME280;26571;41.610;25.380;2023-12-04T10:27:44;99076.84;;;5.51;100.00
40850;BME280;26571;41.610;25.380;2023-12-04T10:30:10;99059.63;;;5.26;100.00
40850;BME280;26571;41.610;25.380;2023-12-04T10:32:47;99084.78;;;5.71;100.00
40850;BME280;26571;41.610;25.380;2023-12-04T10:35:12;99081.59;;;5.34;100.00
40850;BME280;26571;41.610;25.380;2023-12-04T10:37:38;99077.88;;;5.37;100.00
40850;BME280;26571;41.610;25.380;2023-12-04T10:40:04;99076.97;;;5.38;100.00
40850;BME280;26571;41.610;25.380;2023-12-04T10:42:34;99077.91;;;5.48;100.00
40850;BME280;26571;41.610;25.380;2023-12-04T10:45:00;99062.13;;;5.38;100.00
40850;BME280;26571;41.610;25.380;2023-12-04T10:47:27;99065.81;;;5.47;100.00
40850;BME280;26571;41.610;25.380;2023-12-04T10:49:53;99081.97;;;5.63;100.00
40850;BME280;26571;41.610;25.380;2023-12-04T10:52:20;99074.13;;;5.52;100.00
40850;BME280;26571;41.610;25.380;2023-12-04T10:54:50;99079.56;;;5.49;100.00
40850;BME280;26571;41.610;25.380;2023-12-04T10:57:26;99080.88;;;5.43;100.00
40850;BME280;26571;41.610;25.380;2023-12-04T11:00:02;99085.75;;;5.48;100.00
40850;BME280;26571;41.610;25.380;2023-12-04T11:02:29;98897.19;;;4.44;100.00
40850;BME280;26571;41.610;25.380;2023-12-04T11:05:08;99091.81;;;5.82;100.00
40850;BME280;26571;41.610;25.380;2023-12-04T11:07:41;99091.44;;;5.87;100.00
40850;BME280;26571;41.610;25.380;2023-12-04T11:10:10;99085.50;;;5.85;100.00
40850;BME280;26571;41.610;25.380;2023-12-04T11:12:45;99093.22;;;5.86;100.00
40850;BME280;26571;41.610;25.380;2023-12-04T11:15:13;99083.00;;;5.83;100.00
40850;BME280;26571;41.610;25.380;2023-12-04T11:17:43;99091.56;;;5.85;100.00
40850;BME280;26571;41.610;25.380;2023-12-04T11:20:16;99084.81;;;5.94;100.00
40850;BME280;26571;41.610;25.380;2023-12-04T11:22:43;99049.19;;;5.59;100.00
40850;BME280;26571;41.610;25.380;2023-12-04T11:25:12;99086.44;;;5.61;100.00
40850;BME280;26571;41.610;25.380;2023-12-04T11:27:39;99049.66;;;5.31;100.00
40850;BME280;26571;41.610;25.380;2023-12-04T11:30:06;99067.00;;;5.54;100.00
40850;BME280;26571;41.610;25.380;2023-12-04T11:32:31;99078.63;;;5.73;100.00
40850;BME280;26571;41.610;25.380;2023-12-04T11:34:59;99083.63;;;5.64;100.00
40850;BME280;26571;41.610;25.380;2023-12-04T11:37:27;99087.31;;;5.73;100.00
40850;BME280;26571;41.610;25.380;2023-12-04T11:39:53;99086.94;;;5.55;100.00
40850;BME280;26571;41.610;25.380;2023-12-04T11:42:23;99089.31;;;5.58;100.00
40850;BME280;26571;41.610;25.380;2023-12-04T11:44:55;99077.34;;;5.67;100.00
40850;BME280;26571;41.610;25.380;2023-12-04T11:47:21;99084.22;;;5.68;100.00
40850;BME280;26571;41.610;25.380;2023-12-04T11:49:46;99066.53;;;5.49;100.00
40850;BME280;26571;41.610;25.380;2023-12-04T11:52:12;99085.75;;;5.59;100.00
40850;BME280;26571;41.610;25.380;2023-12-04T11:55:00;99076.25;;;5.58;100.00
40850;BME280;26571;41.610;25.380;2023-12-04T11:57:32;99076.34;;;5.57;100.00
40850;BME280;26571;41.610;25.380;2023-12-04T12:00:10;99011.44;;;5.18;100.00
40850;BME280;26571;41.610;25.380;2023-12-04T12:03:01;99072.00;;;5.57;100.00
40850;BME280;26571;41.610;25.380;2023-12-04T12:05:32;99074.56;;;5.46;100.00
40850;BME280;26571;41.610;25.380;2023-12-04T12:08:05;99090.97;;;5.48;100.00
40850;BME280;26571;41.610;25.380;2023-12-04T12:10:32;99085.63;;;5.61;100.00
40850;BME280;26571;41.610;25.380;2023-12-04T12:12:58;99090.16;;;5.59;100.00
40850;BME280;26571;41.610;25.380;2023-12-04T12:15:24;99065.09;;;5.34;100.00
40850;BME280;26571;41.610;25.380;2023-12-04T12:17:51;99064.75;;;5.27;100.00
40850;BME280;26571;41.610;25.380;2023-12-04T12:20:25;99084.56;;;5.52;100.00
40850;BME280;26571;41.610;25.380;2023-12-04T12:22:53;99093.22;;;5.64;100.00
40850;BME280;26571;41.610;25.380;2023-12-04T12:25:19;99090.84;;;5.61;100.00
40850;BME280;26571;41.610;25.380;2023-12-04T12:27:47;99088.25;;;5.38;100.00
40850;BME280;26571;41.610;25.380;2023-12-04T12:30:13;99073.63;;;5.36;100.00
40850;BME280;26571;41.610;25.380;2023-12-04T12:32:39;99083.59;;;5.42;100.00
40850;BME280;26571;41.610;25.380;2023-12-04T12:35:13;99090.50;;;5.43;100.00
40850;BME280;26571;41.610;25.380;2023-12-04T12:37:39;99102.00;;;5.52;100.00
40850;BME280;26571;41.610;25.380;2023-12-04T12:40:05;99085.75;;;5.48;100.00
40850;BME280;26571;41.610;25.380;2023-12-04T12:42:34;99099.28;;;5.76;100.00
40850;BME280;26571;41.610;25.380;2023-12-04T12:45:10;99092.41;;;5.63;100.00